Kilbourne, Louisiana
Current Conditions -  °F | °C
As of 2:35 PM on Saturday 25 Oct 2014 (Local Time) from KBQP Reporting Station
Clear Clear  
Wind Chill: 82°   Ceiling: Unl
Heat Index: 82°   Visibility: 10mi
Dew Point: 60°   Wind: 6mph
Humidity: 46%   Direction: 280°W
Pressure: 30.1"   Gusts: NA
Location:  33°N, 91.32°W
Report Text: KBQP 251935Z AUTO 28005KT 10SM CLR 28/15 A3010 RMK AO2 T02780153
Loading
Personal Weather Stations






























Interactive Weather Map
Tropical Storm Tracking
New forecast layout! Learn more

10-Day Weather Forecast

Advertisements
Track Severe Weather on mobile